Time;durP1;ratioP1;P1;durP2;ratioP2;P2;SDS_P1;SDS_P2;PMS_P1;PMS_P2;Temp;Humidity;BMP_temperature;BMP_pressure;BME280_temperature;BME280_humidity;BME280_pressure;Samples;Min_cycle;Max_cycle;Signal;HPM_P1;HPM_P2
2023/03/31 00:02:15;;;;;;;;;;;;;;;19.88;24.66;100811.12;102835;1295;60498;-83
2023/03/31 00:04:44;;;;;;;;;;;;;;;19.88;24.74;100812.20;102837;1300;60771;-84
2023/03/31 00:07:13;;;;;;;;;;;;;;;19.88;24.71;100805.04;102967;1300;73363;-84
2023/03/31 00:09:40;;;;;;;;;;;;;;;19.88;24.58;100795.94;102942;1294;75528;-83
2023/03/31 00:12:06;;;;;;;;;;;;;;;19.88;24.65;100789.18;102959;1294;61315;-84
2023/03/31 00:14:32;;;;;;;;;;;;;;;19.88;24.62;100787.54;102934;1299;61333;-83
2023/03/31 00:16:58;;;;;;;;;;;;;;;19.88;24.69;100777.55;102951;1289;61449;-84
2023/03/31 00:19:27;;;;;;;;;;;;;;;19.88;24.72;100768.98;103448;1289;61358;-83
2023/03/31 00:21:53;;;;;;;;;;;;;;;19.88;24.57;100763.27;103576;1289;62381;-84
2023/03/31 00:24:21;;;;;;;;;;;;;;;19.89;24.59;100760.52;103442;1293;61413;-84
2023/03/31 00:26:47;;;;;;;;;;;;;;;19.89;24.62;100762.48;103630;1289;71428;-84
2023/03/31 00:29:13;;;;;;;;;;;;;;;19.89;24.66;100755.86;103453;1289;62120;-83
2023/03/31 00:31:39;;;;;;;;;;;;;;;19.89;24.70;100747.67;103479;1288;61919;-83
2023/03/31 00:34:05;;;;;;;;;;;;;;;19.89;24.52;100735.88;103270;1289;61371;-84
2023/03/31 00:36:35;;;;;;;;;;;;;;;19.88;24.80;100729.66;103438;1289;61404;-83
2023/03/31 00:39:05;;;;;;;;;;;;;;;19.89;24.64;100726.58;103437;1289;75537;-83
2023/03/31 00:41:31;;;;;;;;;;;;;;;19.89;24.65;100733.20;103477;1289;63243;-82
2023/03/31 00:44:13;;;;;;;;;;;;;;;19.89;24.80;100734.24;103556;1289;61400;-83
2023/03/31 00:46:54;;;;;;;;;;;;;;;19.90;24.84;100737.77;103583;1289;72299;-83
2023/03/31 00:49:40;;;;;;;;;;;;;;;19.90;24.76;100730.58;103689;1289;73682;-84
2023/03/31 00:52:12;;;;;;;;;;;;;;;19.91;24.67;100726.42;103136;1298;61310;-82
2023/03/31 00:54:38;;;;;;;;;;;;;;;19.91;24.50;100721.27;103087;1299;61366;-82
2023/03/31 00:57:05;;;;;;;;;;;;;;;19.91;24.72;100721.80;103066;1294;61500;-83
2023/03/31 00:59:32;;;;;;;;;;;;;;;19.91;24.59;100720.02;102756;1298;62059;-84
2023/03/31 01:02:01;;;;;;;;;;;;;;;19.91;24.68;100718.23;102679;1298;61537;-84
2023/03/31 01:04:27;;;;;;;;;;;;;;;19.91;24.61;100717.54;102659;1300;62194;-83
2023/03/31 01:07:08;;;;;;;;;;;;;;;19.91;24.62;100723.39;102944;1298;72323;-82
2023/03/31 01:09:34;;;;;;;;;;;;;;;19.91;24.78;100718.93;103052;1299;74344;-83
2023/03/31 01:12:00;;;;;;;;;;;;;;;19.92;24.75;100718.54;102751;1298;61407;-83
2023/03/31 01:14:26;;;;;;;;;;;;;;;19.91;24.71;100708.36;102764;1297;61332;-83
2023/03/31 01:16:52;;;;;;;;;;;;;;;19.92;24.59;100699.02;102735;1297;61356;-83
2023/03/31 01:19:20;;;;;;;;;;;;;;;19.92;24.72;100697.81;102774;1298;61324;-83
2023/03/31 01:21:52;;;;;;;;;;;;;;;19.92;24.70;100699.39;102747;1302;61433;-83
2023/03/31 01:24:24;;;;;;;;;;;;;;;19.92;24.69;100702.79;102776;1298;61436;-83
2023/03/31 01:27:06;;;;;;;;;;;;;;;19.92;24.64;100700.63;102675;1298;72340;-82
2023/03/31 01:29:53;;;;;;;;;;;;;;;19.92;24.66;100692.77;102884;1298;74508;-83
2023/03/31 01:32:38;;;;;;;;;;;;;;;19.92;24.66;100694.19;103114;1292;61343;-84
2023/03/31 01:35:09;;;;;;;;;;;;;;;19.92;24.77;100689.20;103172;1294;61480;-84
2023/03/31 01:37:36;;;;;;;;;;;;;;;19.92;24.75;100689.55;103354;1289;72445;-84
2023/03/31 01:40:09;;;;;;;;;;;;;;;19.92;24.59;100686.89;103566;1288;74461;-83
2023/03/31 01:42:47;;;;;;;;;;;;;;;19.93;24.80;100685.06;103559;1288;61378;-84
2023/03/31 01:45:27;;;;;;;;;;;;;;;19.92;24.67;100685.45;103563;1289;61667;-84
2023/03/31 01:47:53;;;;;;;;;;;;;;;19.92;24.74;100679.73;103595;1289;72503;-83
2023/03/31 01:50:27;;;;;;;;;;;;;;;19.92;24.74;100678.15;103610;1289;61263;-83
2023/03/31 01:52:57;;;;;;;;;;;;;;;19.92;24.68;100674.76;103505;1288;62452;-83
2023/03/31 01:55:49;;;;;;;;;;;;;;;19.92;24.67;100670.09;103499;1289;62235;-83
2023/03/31 01:58:23;;;;;;;;;;;;;;;19.92;24.60;100671.52;103503;1289;72528;-83
2023/03/31 02:01:00;;;;;;;;;;;;;;;19.92;24.61;100665.27;103591;1289;75508;-83
2023/03/31 02:03:34;;;;;;;;;;;;;;;19.93;24.74;100655.06;103478;1294;61390;-83
2023/03/31 02:06:07;;;;;;;;;;;;;;;19.92;24.73;100652.58;103542;1289;61330;-84
2023/03/31 02:08:47;;;;;;;;;;;;;;;19.93;24.71;100652.91;103642;1292;73444;-83
2023/03/31 02:11:12;;;;;;;;;;;;;;;19.93;24.70;100652.72;103484;1290;75352;-83
2023/03/31 02:13:40;;;;;;;;;;;;;;;19.93;24.75;100653.23;103524;1289;61418;-83
2023/03/31 02:16:06;;;;;;;;;;;;;;;19.93;24.73;100654.30;103768;1289;62547;-84
2023/03/31 02:18:32;;;;;;;;;;;;;;;19.93;24.57;100654.48;103492;1289;73358;-84
2023/03/31 02:20:58;;;;;;;;;;;;;;;19.94;24.66;100654.25;103648;1289;61476;-83
2023/03/31 02:23:25;;;;;;;;;;;;;;;19.94;24.61;100646.95;103551;1289;61397;-84
2023/03/31 02:26:04;;;;;;;;;;;;;;;19.93;24.70;100646.79;103461;1289;61321;-84
2023/03/31 02:28:29;;;;;;;;;;;;;;;19.94;24.82;100640.52;103543;1289;72513;-83
2023/03/31 02:31:14;;;;;;;;;;;;;;;19.94;24.79;100637.47;103558;1291;62461;-84
2023/03/31 02:33:39;;;;;;;;;;;;;;;19.94;24.79;100632.84;103727;1289;61278;-84
2023/03/31 02:36:08;;;;;;;;;;;;;;;19.94;24.82;100630.52;103555;1289;61560;-83
2023/03/31 02:38:36;;;;;;;;;;;;;;;19.94;24.74;100628.38;103499;1289;61404;-84
2023/03/31 02:41:02;;;;;;;;;;;;;;;19.94;24.65;100626.77;103416;1293;73467;-84
2023/03/31 02:43:27;;;;;;;;;;;;;;;19.94;24.66;100631.21;103576;1289;61808;-83
2023/03/31 02:45:53;;;;;;;;;;;;;;;19.94;24.75;100635.88;103556;1289;61407;-84
2023/03/31 02:48:20;;;;;;;;;;;;;;;19.93;24.81;100637.33;103651;1289;61457;-83
2023/03/31 02:51:07;;;;;;;;;;;;;;;19.95;24.88;100638.35;103724;1289;61477;-83
2023/03/31 02:53:33;;;;;;;;;;;;;;;19.95;24.72;100641.73;103638;1289;61358;-84
2023/03/31 02:56:16;;;;;;;;;;;;;;;19.94;24.82;100641.78;103596;1289;61343;-85
2023/03/31 02:58:56;;;;;;;;;;;;;;;19.93;24.77;100639.29;103513;1289;72751;-83
2023/03/31 03:01:31;;;;;;;;;;;;;;;19.94;24.82;100637.13;103430;1289;74769;-83
2023/03/31 03:04:10;;;;;;;;;;;;;;;19.94;24.77;100636.58;103600;1288;61324;-83
2023/03/31 03:06:38;;;;;;;;;;;;;;;19.94;24.80;100638.17;103648;1289;62271;-83
2023/03/31 03:09:04;;;;;;;;;;;;;;;19.94;24.94;100639.24;103499;1288;73742;-84
2023/03/31 03:11:44;;;;;;;;;;;;;;;19.95;24.79;100641.57;103423;1289;61913;-83
2023/03/31 03:14:09;;;;;;;;;;;;;;;19.95;24.88;100640.65;103545;1290;61369;-83
2023/03/31 03:16:40;;;;;;;;;;;;;;;19.95;24.89;100640.98;103624;1289;61752;-83
2023/03/31 03:19:06;;;;;;;;;;;;;;;19.96;24.79;100643.45;103675;1288;72541;-83
2023/03/31 03:21:31;;;;;;;;;;;;;;;19.96;24.73;100639.34;103473;1289;61334;-83
2023/03/31 03:23:58;;;;;;;;;;;;;;;19.96;24.81;100641.67;103488;1294;61438;-83
2023/03/31 03:26:26;;;;;;;;;;;;;;;19.96;24.82;100638.60;103579;1289;62476;-82
2023/03/31 03:28:55;;;;;;;;;;;;;;;19.96;24.84;100642.89;103687;1289;72262;-83
2023/03/31 03:31:22;;;;;;;;;;;;;;;19.96;24.92;100642.89;103616;1291;74218;-83
2023/03/31 03:33:48;;;;;;;;;;;;;;;19.97;24.79;100640.70;103564;1292;61196;-83
2023/03/31 03:36:14;;;;;;;;;;;;;;;19.97;24.76;100636.96;103607;1289;61388;-83
2023/03/31 03:38:40;;;;;;;;;;;;;;;19.96;24.73;100630.19;103561;1291;61407;-83
2023/03/31 03:41:05;;;;;;;;;;;;;;;19.97;24.77;100623.71;103443;1289;61445;-84
2023/03/31 03:43:31;;;;;;;;;;;;;;;19.97;24.89;100623.90;103464;1289;61496;-84
2023/03/31 03:45:57;;;;;;;;;;;;;;;19.97;24.92;100623.36;103466;1289;62416;-83
2023/03/31 03:48:23;;;;;;;;;;;;;;;19.97;24.91;100616.90;103623;1289;61385;-84
2023/03/31 03:50:50;;;;;;;;;;;;;;;19.97;24.84;100614.95;103663;1289;72281;-82
2023/03/31 03:53:15;;;;;;;;;;;;;;;19.97;24.77;100616.15;103461;1289;61471;-83
2023/03/31 03:55:41;;;;;;;;;;;;;;;19.97;24.78;100611.89;103671;1288;61272;-83
2023/03/31 03:58:07;;;;;;;;;;;;;;;19.98;24.65;100610.78;103747;1289;61487;-84
2023/03/31 04:00:32;;;;;;;;;;;;;;;19.97;24.79;100613.66;103637;1289;61414;-83
2023/03/31 04:02:59;;;;;;;;;;;;;;;19.97;24.79;100609.59;103951;1289;61390;-82
2023/03/31 04:05:24;;;;;;;;;;;;;;;19.97;24.79;100610.45;103690;1289;74440;-82
2023/03/31 04:07:51;;;;;;;;;;;;;;;19.97;24.76;100609.02;103482;1290;61406;-84
2023/03/31 04:10:17;;;;;;;;;;;;;;;19.98;24.90;100609.86;103466;1290;61381;-83
2023/03/31 04:12:42;;;;;;;;;;;;;;;20.00;24.96;100612.94;103459;1289;61384;-84
2023/03/31 04:15:08;;;;;;;;;;;;;;;20.01;25.05;100613.58;103530;1289;61480;-84
2023/03/31 04:17:35;;;;;;;;;;;;;;;20.03;25.12;100613.77;103678;1289;61297;-83
2023/03/31 04:20:03;;;;;;;;;;;;;;;20.05;24.96;100613.52;103570;1289;61372;-84
2023/03/31 04:22:34;;;;;;;;;;;;;;;20.05;25.16;100609.22;103726;1289;61621;-84
2023/03/31 04:25:02;;;;;;;;;;;;;;;20.05;25.14;100608.34;103600;1288;72572;-84
2023/03/31 04:27:28;;;;;;;;;;;;;;;20.05;25.24;100607.96;103589;1288;75437;-84
2023/03/31 04:29:53;;;;;;;;;;;;;;;20.05;25.19;100604.91;103311;1292;62634;-83
2023/03/31 04:32:21;;;;;;;;;;;;;;;20.04;25.31;100602.98;103583;1289;61409;-83
2023/03/31 04:34:49;;;;;;;;;;;;;;;20.04;25.22;100608.20;103598;1289;61390;-85
2023/03/31 04:37:16;;;;;;;;;;;;;;;20.04;25.22;100607.86;103478;1292;75347;-84
2023/03/31 04:39:45;;;;;;;;;;;;;;;20.03;25.23;100608.98;103475;1294;61687;-84
2023/03/31 04:42:11;;;;;;;;;;;;;;;20.03;25.32;100611.49;103549;1289;61387;-83
2023/03/31 04:44:36;;;;;;;;;;;;;;;20.02;25.18;100608.85;103704;1288;61407;-83
2023/03/31 04:47:05;;;;;;;;;;;;;;;20.02;25.22;100609.21;103648;1287;61391;-84
2023/03/31 04:49:32;;;;;;;;;;;;;;;20.02;25.42;100608.88;103459;1291;61403;-84
2023/03/31 04:52:05;;;;;;;;;;;;;;;20.00;25.52;100607.39;103567;1291;61283;-83
2023/03/31 04:54:31;;;;;;;;;;;;;;;19.99;25.71;100606.98;103482;1291;62442;-82
2023/03/31 04:56:57;;;;;;;;;;;;;;;19.96;25.71;100603.23;103644;1292;61387;-82
2023/03/31 04:59:22;;;;;;;;;;;;;;;19.92;25.63;100604.18;103640;1291;62280;-83
2023/03/31 05:01:48;;;;;;;;;;;;;;;19.88;25.77;100597.71;103796;1292;61275;-83
2023/03/31 05:04:13;;;;;;;;;;;;;;;19.84;25.56;100599.02;103692;1292;61343;-83
2023/03/31 05:06:41;;;;;;;;;;;;;;;19.81;25.57;100597.08;103434;1291;61488;-83
2023/03/31 05:09:08;;;;;;;;;;;;;;;19.79;25.68;100592.59;103339;1292;74318;-84
2023/03/31 05:11:33;;;;;;;;;;;;;;;19.79;25.56;100592.08;103743;1292;61376;-84
2023/03/31 05:13:59;;;;;;;;;;;;;;;19.79;25.59;100588.63;103904;1292;61474;-84
2023/03/31 05:16:25;;;;;;;;;;;;;;;19.80;25.51;100588.93;103692;1293;62631;-85
2023/03/31 05:18:50;;;;;;;;;;;;;;;19.82;25.49;100587.08;103699;1292;61539;-84
2023/03/31 05:21:17;;;;;;;;;;;;;;;19.83;25.50;100583.05;103891;1291;61510;-84
2023/03/31 05:23:49;;;;;;;;;;;;;;;19.85;25.57;100582.88;104028;1289;61353;-84
2023/03/31 05:26:15;;;;;;;;;;;;;;;19.87;25.47;100580.80;104269;1289;61391;-85
2023/03/31 05:28:42;;;;;;;;;;;;;;;19.89;25.57;100573.36;104087;1289;61335;-84
2023/03/31 05:31:07;;;;;;;;;;;;;;;19.92;25.60;100571.00;103773;1288;61384;-84
2023/03/31 05:33:33;;;;;;;;;;;;;;;19.94;25.66;100569.03;104249;1289;62554;-82
2023/03/31 05:36:25;;;;;;;;;;;;;;;19.96;25.53;100566.94;104095;1289;61318;-81
2023/03/31 05:38:51;;;;;;;;;;;;;;;19.97;25.45;100565.12;103306;1296;72513;-82
2023/03/31 05:41:17;;;;;;;;;;;;;;;19.96;25.40;100558.25;103733;1296;61785;-82
2023/03/31 05:43:42;;;;;;;;;;;;;;;19.95;25.65;100567.43;103877;1297;59915;-83
2023/03/31 05:46:09;;;;;;;;;;;;;;;19.94;25.48;100566.74;103577;1297;61388;-82
2023/03/31 05:48:36;;;;;;;;;;;;;;;19.96;25.54;100566.60;103990;1298;61498;-82
2023/03/31 05:51:01;;;;;;;;;;;;;;;19.98;25.67;100566.11;104397;1298;61378;-82
2023/03/31 05:53:27;;;;;;;;;;;;;;;19.98;25.69;100565.54;103868;1295;61587;-82
2023/03/31 05:55:57;;;;;;;;;;;;;;;19.98;25.45;100567.23;104322;1298;61346;-82
2023/03/31 05:58:22;;;;;;;;;;;;;;;19.96;25.65;100565.54;103868;1298;61397;-83
2023/03/31 06:00:48;;;;;;;;;;;;;;;19.92;25.88;100560.59;103997;1300;61351;-82
2023/03/31 06:03:15;;;;;;;;;;;;;;;19.89;25.74;100562.60;104018;1297;61373;-84
2023/03/31 06:05:46;;;;;;;;;;;;;;;19.83;25.88;100559.11;104292;1295;61350;-81
2023/03/31 06:08:11;;;;;;;;;;;;;;;19.80;26.16;100553.61;104054;1296;61227;-82
2023/03/31 06:10:37;;;;;;;;;;;;;;;19.77;26.09;100550.59;103786;1300;61490;-82
2023/03/31 06:13:03;;;;;;;;;;;;;;;19.73;26.33;100546.05;104431;1297;61468;-82
2023/03/31 06:15:29;;;;;;;;;;;;;;;19.69;26.24;100545.44;104522;1290;59439;-83
2023/03/31 06:17:54;;;;;;;;;;;;;;;19.66;26.34;100542.72;105066;1289;59732;-83
2023/03/31 06:20:20;;;;;;;;;;;;;;;19.65;26.32;100541.59;105117;1292;61233;-83
2023/03/31 06:22:46;;;;;;;;;;;;;;;19.66;26.51;100534.57;105083;1288;72736;-83
2023/03/31 06:25:12;;;;;;;;;;;;;;;19.68;26.69;100535.28;104842;1291;61381;-83
2023/03/31 06:27:38;;;;;;;;;;;;;;;19.71;26.53;100533.47;104974;1288;61390;-82
2023/03/31 06:30:03;;;;;;;;;;;;;;;19.71;26.72;100532.17;104814;1289;61365;-83
2023/03/31 06:32:29;;;;;;;;;;;;;;;19.71;26.84;100530.47;104955;1289;60090;-83
2023/03/31 06:34:54;;;;;;;;;;;;;;;19.69;26.77;100528.80;105270;1288;59507;-83
2023/03/31 06:37:20;;;;;;;;;;;;;;;19.67;26.88;100526.79;105300;1294;75478;-83
2023/03/31 06:39:45;;;;;;;;;;;;;;;19.67;26.99;100524.52;105162;1289;61186;-83
2023/03/31 06:42:11;;;;;;;;;;;;;;;19.67;27.11;100526.45;105103;1288;61761;-83
2023/03/31 06:44:37;;;;;;;;;;;;;;;19.68;27.14;100531.89;104716;1293;61176;-84
2023/03/31 06:47:03;;;;;;;;;;;;;;;19.73;27.18;100526.59;104826;1289;61263;-83
2023/03/31 06:49:28;;;;;;;;;;;;;;;19.76;27.39;100520.78;104679;1288;61384;-82
2023/03/31 06:51:54;;;;;;;;;;;;;;;19.80;27.39;100524.85;104905;1286;61224;-83
2023/03/31 06:54:20;;;;;;;;;;;;;;;19.81;27.34;100523.02;104841;1286;61340;-81
2023/03/31 06:56:46;;;;;;;;;;;;;;;19.82;27.50;100522.08;105993;1285;59795;-82
2023/03/31 06:59:12;;;;;;;;;;;;;;;19.82;27.61;100516.16;104938;1286;61285;-82
2023/03/31 07:01:41;;;;;;;;;;;;;;;19.82;27.63;100516.33;104750;1291;61461;-83
2023/03/31 07:04:06;;;;;;;;;;;;;;;19.84;27.75;100516.03;104290;1288;665228;-82
2023/03/31 07:06:32;;;;;;;;;;;;;;;19.84;27.99;100523.48;105141;1285;59387;-82
2023/03/31 07:08:57;;;;;;;;;;;;;;;19.83;28.11;100529.49;104936;1286;61321;-81
2023/03/31 07:11:23;;;;;;;;;;;;;;;19.80;28.12;100528.74;105012;1286;61247;-81
2023/03/31 07:13:48;;;;;;;;;;;;;;;19.78;28.19;100521.42;105156;1285;61316;-81
2023/03/31 07:16:14;;;;;;;;;;;;;;;19.75;28.26;100521.04;104850;1292;61275;-81
2023/03/31 07:18:40;;;;;;;;;;;;;;;19.74;28.35;100520.45;105204;1285;61298;-82
2023/03/31 07:21:06;;;;;;;;;;;;;;;19.72;28.39;100519.34;105352;1286;61200;-81
2023/03/31 07:23:33;;;;;;;;;;;;;;;19.69;28.60;100510.92;105475;1286;59686;-81
2023/03/31 07:26:01;;;;;;;;;;;;;;;19.68;28.70;100507.27;105259;1286;61397;-81
2023/03/31 07:28:27;;;;;;;;;;;;;;;19.67;28.73;100503.08;105248;1286;61194;-81
2023/03/31 07:30:52;;;;;;;;;;;;;;;19.65;28.75;100495.73;105180;1286;61395;-81
2023/03/31 07:33:18;;;;;;;;;;;;;;;19.67;29.23;100493.58;104809;1286;59428;-81
2023/03/31 07:35:44;;;;;;;;;;;;;;;19.72;29.55;100486.86;104815;1286;61316;-81
2023/03/31 07:38:11;;;;;;;;;;;;;;;19.77;29.70;100490.59;104769;1287;59989;-81
2023/03/31 07:40:36;;;;;;;;;;;;;;;19.82;29.89;100487.39;105198;1286;59662;-81
2023/03/31 07:43:02;;;;;;;;;;;;;;;19.87;30.04;100479.73;104561;1293;61538;-81
2023/03/31 07:45:29;;;;;;;;;;;;;;;19.92;30.04;100478.08;104760;1291;61186;-81
2023/03/31 07:47:55;;;;;;;;;;;;;;;19.98;30.18;100476.99;105073;1285;61334;-81
2023/03/31 07:50:20;;;;;;;;;;;;;;;20.02;30.29;100477.39;105342;1286;61375;-82
2023/03/31 07:52:46;;;;;;;;;;;;;;;20.04;30.38;100475.45;105624;1285;59631;-81
2023/03/31 07:55:12;;;;;;;;;;;;;;;20.04;30.50;100474.42;105419;1286;59690;-81
2023/03/31 07:57:39;;;;;;;;;;;;;;;20.03;30.36;100467.83;105375;1286;61290;-81
2023/03/31 08:00:14;;;;;;;;;;;;;;;20.05;30.58;100462.33;105052;1287;61289;-82
2023/03/31 08:02:41;;;;;;;;;;;;;;;20.07;30.64;100462.55;104940;1286;75254;-82
2023/03/31 08:05:15;;;;;;;;;;;;;;;20.06;30.71;100459.61;105662;1285;61264;-82
2023/03/31 08:07:41;;;;;;;;;;;;;;;20.05;30.84;100453.29;105938;1285;61182;-82
2023/03/31 08:10:08;;;;;;;;;;;;;;;20.02;30.84;100451.64;105775;1286;61199;-82
2023/03/31 08:12:33;;;;;;;;;;;;;;;20.00;30.88;100458.98;105926;1285;59489;-82
2023/03/31 08:15:00;;;;;;;;;;;;;;;19.96;30.94;100458.73;105141;1289;61269;-82
2023/03/31 08:17:25;;;;;;;;;;;;;;;19.91;31.15;100455.34;104784;1288;61356;-82
2023/03/31 08:19:51;;;;;;;;;;;;;;;19.86;31.10;100447.84;104829;1290;61377;-82
2023/03/31 08:22:16;;;;;;;;;;;;;;;19.82;31.10;100443.13;105357;1286;61289;-82
2023/03/31 08:24:42;;;;;;;;;;;;;;;19.79;31.18;100433.69;105208;1285;62559;-81
2023/03/31 08:27:07;;;;;;;;;;;;;;;19.77;31.03;100428.78;104926;1286;59410;-82
2023/03/31 08:29:33;;;;;;;;;;;;;;;19.78;31.18;100420.89;104877;1286;61426;-81
2023/03/31 08:31:58;;;;;;;;;;;;;;;19.81;31.08;100416.42;104644;1286;61311;-82
2023/03/31 08:34:24;;;;;;;;;;;;;;;19.84;31.17;100406.73;104668;1285;61288;-82
2023/03/31 08:36:50;;;;;;;;;;;;;;;19.86;31.20;100399.94;104643;1291;61475;-82
2023/03/31 08:39:15;;;;;;;;;;;;;;;19.85;31.15;100399.31;104938;1285;61286;-82
2023/03/31 08:41:53;;;;;;;;;;;;;;;19.82;31.10;100399.88;104602;1289;61474;-82
2023/03/31 08:44:33;;;;;;;;;;;;;;;19.79;31.16;100398.11;104689;1290;72318;-82
2023/03/31 08:46:59;;;;;;;;;;;;;;;19.76;31.22;100394.23;104295;1290;75542;-83
2023/03/31 08:49:25;;;;;;;;;;;;;;;19.73;31.29;100384.95;104408;1285;61302;-83
2023/03/31 08:51:55;;;;;;;;;;;;;;;19.72;31.24;100378.63;104459;1286;61398;-83
2023/03/31 08:54:28;;;;;;;;;;;;;;;19.70;31.51;100371.80;104474;1291;72521;-83
2023/03/31 08:56:53;;;;;;;;;;;;;;;19.69;31.44;100371.52;104627;1285;74692;-83
2023/03/31 08:59:25;;;;;;;;;;;;;;;19.67;31.55;100369.15;104813;1286;61333;-83
2023/03/31 09:02:11;;;;;;;;;;;;;;;19.65;31.56;100361.47;104878;1286;61253;-83
2023/03/31 09:04:55;;;;;;;;;;;;;;;19.66;31.78;100361.77;104401;1286;74004;-82
2023/03/31 09:07:27;;;;;;;;;;;;;;;19.68;31.86;100356.27;104850;1285;73555;-83
2023/03/31 09:10:00;;;;;;;;;;;;;;;19.69;31.86;100345.84;104466;1288;61272;-83
2023/03/31 09:12:32;;;;;;;;;;;;;;;19.68;32.02;100344.80;104254;1288;61509;-84
2023/03/31 09:15:01;;;;;;;;;;;;;;;19.68;32.05;100341.75;104609;1286;71485;-83
2023/03/31 09:17:28;;;;;;;;;;;;;;;19.68;32.09;100339.80;104657;1287;75597;-83
2023/03/31 09:20:15;;;;;;;;;;;;;;;19.68;32.13;100328.77;104563;1286;62132;-82
2023/03/31 09:22:48;;;;;;;;;;;;;;;19.68;32.04;100324.27;104338;1286;61386;-84
2023/03/31 09:25:18;;;;;;;;;;;;;;;19.68;32.12;100322.10;104290;1291;72530;-84
2023/03/31 09:27:46;;;;;;;;;;;;;;;19.69;32.14;100325.08;104209;1286;74375;-84
2023/03/31 09:30:17;;;;;;;;;;;;;;;19.69;32.19;100322.27;104252;1290;61292;-83
2023/03/31 09:32:42;;;;;;;;;;;;;;;19.68;32.13;100315.68;104337;1286;61371;-83
2023/03/31 09:35:20;;;;;;;;;;;;;;;19.70;32.28;100311.98;104097;1291;61380;-84
2023/03/31 09:37:46;;;;;;;;;;;;;;;19.74;32.22;100302.92;104536;1288;75210;-82
2023/03/31 09:40:16;;;;;;;;;;;;;;;19.78;32.26;100301.59;104298;1286;61384;-82
2023/03/31 09:42:41;;;;;;;;;;;;;;;19.83;32.35;100295.92;104255;1287;61238;-83
2023/03/31 09:45:12;;;;;;;;;;;;;;;19.87;32.30;100298.98;104462;1286;61332;-83
2023/03/31 09:47:41;;;;;;;;;;;;;;;19.92;32.30;100303.08;104311;1286;74504;-84
2023/03/31 09:50:06;;;;;;;;;;;;;;;19.96;32.31;100299.77;104162;1286;61295;-83
2023/03/31 09:52:33;;;;;;;;;;;;;;;20.00;32.43;100287.48;104640;1286;61262;-83
2023/03/31 09:55:00;;;;;;;;;;;;;;;20.03;32.43;100278.66;104463;1289;61577;-83
2023/03/31 09:57:33;;;;;;;;;;;;;;;20.07;32.35;100280.52;104185;1291;75594;-83
2023/03/31 10:00:15;;;;;;;;;;;;;;;20.11;32.41;100280.23;104030;1290;61355;-84
2023/03/31 10:02:45;;;;;;;;;;;;;;;20.14;32.51;100271.10;104246;1289;61332;-83
2023/03/31 10:05:29;;;;;;;;;;;;;;;20.16;32.49;100265.59;104526;1289;73497;-83
2023/03/31 10:08:11;;;;;;;;;;;;;;;20.19;32.64;100262.33;104563;1286;75539;-82
2023/03/31 10:10:36;;;;;;;;;;;;;;;20.21;32.47;100256.27;104370;1286;61717;-82
2023/03/31 10:13:02;;;;;;;;;;;;;;;20.24;32.48;100251.70;104373;1286;60128;-82
2023/03/31 10:15:28;;;;;;;;;;;;;;;20.27;32.62;100247.75;104441;1286;61384;-82
2023/03/31 10:17:53;;;;;;;;;;;;;;;20.30;32.61;100248.12;104530;1286;61468;-82
2023/03/31 10:20:37;;;;;;;;;;;;;;;20.32;32.53;100245.42;104718;1286;61378;-82
2023/03/31 10:23:17;;;;;;;;;;;;;;;20.34;32.71;100236.52;104204;1291;61272;-82
2023/03/31 10:25:44;;;;;;;;;;;;;;;20.36;32.67;100235.65;104205;1290;62386;-83
2023/03/31 10:28:10;;;;;;;;;;;;;;;20.37;32.72;100230.71;104134;1286;72537;-82
2023/03/31 10:30:38;;;;;;;;;;;;;;;20.40;32.84;100230.54;104258;1286;61221;-83
2023/03/31 10:33:05;;;;;;;;;;;;;;;20.41;32.74;100227.05;104551;1286;62436;-83
2023/03/31 10:35:31;;;;;;;;;;;;;;;20.43;32.76;100220.46;104892;1291;61262;-83
2023/03/31 10:37:59;;;;;;;;;;;;;;;20.45;32.67;100221.05;103956;1286;61375;-82
2023/03/31 10:40:25;;;;;;;;;;;;;;;20.46;32.79;100219.55;104309;1288;75445;-82
2023/03/31 10:43:05;;;;;;;;;;;;;;;20.47;32.91;100216.74;104042;1286;61361;-82
2023/03/31 10:45:38;;;;;;;;;;;;;;;20.49;32.85;100211.08;104263;1286;61205;-83
2023/03/31 10:48:03;;;;;;;;;;;;;;;20.50;32.87;100213.84;104300;1286;72311;-83
2023/03/31 10:50:30;;;;;;;;;;;;;;;20.51;33.04;100209.98;104133;1290;61393;-84
2023/03/31 10:53:15;;;;;;;;;;;;;;;20.53;32.87;100203.23;104125;1286;61390;-84
2023/03/31 10:55:55;;;;;;;;;;;;;;;20.53;32.93;100196.58;104057;1290;61362;-83
2023/03/31 10:58:26;;;;;;;;;;;;;;;20.54;33.11;100197.45;104001;1286;72821;-84
2023/03/31 11:00:58;;;;;;;;;;;;;;;20.54;33.05;100189.71;104089;1289;75425;-83
2023/03/31 11:03:32;;;;;;;;;;;;;;;20.56;33.07;100187.99;104196;1286;61295;-83
2023/03/31 11:06:00;;;;;;;;;;;;;;;20.56;33.03;100188.84;104165;1286;61326;-84
2023/03/31 11:08:34;;;;;;;;;;;;;;;20.55;32.95;100182.18;103793;1286;71411;-84
2023/03/31 11:11:03;;;;;;;;;;;;;;;20.49;33.07;100179.27;104225;1291;74771;-82
2023/03/31 11:13:32;;;;;;;;;;;;;;;20.46;33.28;100172.66;104039;1288;61407;-84
2023/03/31 11:16:07;;;;;;;;;;;;;;;20.45;33.18;100169.48;103924;1289;61301;-84
2023/03/31 11:18:36;;;;;;;;;;;;;;;20.45;33.27;100169.73;103810;1291;72363;-83
2023/03/31 11:21:01;;;;;;;;;;;;;;;20.43;33.33;100165.52;104256;1286;75230;-84
2023/03/31 11:23:36;;;;;;;;;;;;;;;20.44;33.25;100161.77;103834;1291;61388;-86
2023/03/31 11:26:04;;;;;;;;;;;;;;;20.43;33.32;100159.98;104162;1291;61361;-82
2023/03/31 11:28:39;;;;;;;;;;;;;;;20.44;33.41;100158.35;104038;1290;72391;-83
2023/03/31 11:31:15;;;;;;;;;;;;;;;20.45;33.35;100156.50;103982;1291;75628;-84
2023/03/31 11:33:44;;;;;;;;;;;;;;;20.45;33.52;100154.70;103900;1286;61272;-85
2023/03/31 11:36:10;;;;;;;;;;;;;;;20.45;33.50;100152.04;103991;1291;61295;-84
2023/03/31 11:38:55;;;;;;;;;;;;;;;20.42;33.43;100151.66;103789;1286;61377;-85
2023/03/31 11:41:34;;;;;;;;;;;;;;;20.41;33.58;100150.16;103867;1291;74283;-83
2023/03/31 11:44:02;;;;;;;;;;;;;;;20.41;33.67;100150.39;103730;1286;61343;-85
2023/03/31 11:46:43;;;;;;;;;;;;;;;20.40;33.50;100146.67;103719;1290;61761;-85
2023/03/31 11:49:17;;;;;;;;;;;;;;;20.41;33.54;100141.98;103823;1286;72338;-84
2023/03/31 11:51:48;;;;;;;;;;;;;;;20.42;33.56;100136.35;103738;1291;75054;-84
2023/03/31 11:54:34;;;;;;;;;;;;;;;20.44;33.71;100132.98;103855;1286;61142;-84
2023/03/31 11:57:01;;;;;;;;;;;;;;;20.46;33.64;100132.64;104331;1290;61358;-84
2023/03/31 11:59:28;;;;;;;;;;;;;;;20.47;33.72;100128.98;103979;1286;73370;-84
2023/03/31 12:02:23;;;;;;;;;;;;;;;20.49;33.73;100121.85;104044;1286;75327;-84
2023/03/31 12:04:50;;;;;;;;;;;;;;;20.52;33.79;100124.13;103386;1292;61455;-84
2023/03/31 12:07:18;;;;;;;;;;;;;;;20.53;33.84;100118.09;103797;1289;61385;-84
2023/03/31 12:09:48;;;;;;;;;;;;;;;20.55;33.66;100117.08;104019;1286;72579;-84
2023/03/31 12:12:22;;;;;;;;;;;;;;;20.56;33.80;100116.27;103816;1290;74518;-83
2023/03/31 12:14:49;;;;;;;;;;;;;;;20.57;33.86;100113.87;103957;1291;62647;-84
2023/03/31 12:17:19;;;;;;;;;;;;;;;20.58;33.89;100110.04;103899;1286;61240;-84
2023/03/31 12:19:52;;;;;;;;;;;;;;;20.59;33.92;100099.62;103874;1290;72548;-84
2023/03/31 12:22:32;;;;;;;;;;;;;;;20.59;33.95;100093.52;104000;1290;74430;-84
2023/03/31 12:24:59;;;;;;;;;;;;;;;20.58;33.96;100094.31;103996;1290;61400;-84
2023/03/31 12:27:26;;;;;;;;;;;;;;;20.58;33.94;100091.45;104038;1286;61394;-83
2023/03/31 12:29:59;;;;;;;;;;;;;;;20.61;33.94;100091.77;104177;1284;73322;-84
2023/03/31 12:32:26;;;;;;;;;;;;;;;20.65;34.01;100092.15;103909;1289;74487;-83
2023/03/31 12:34:59;;;;;;;;;;;;;;;20.69;34.06;100088.29;103882;1292;61362;-84
2023/03/31 12:37:43;;;;;;;;;;;;;;;20.71;34.16;100082.39;103885;1286;61964;-83